Time;durP1;ratioP1;P1;durP2;ratioP2;P2;SDS_P1;SDS_P2;PMS_P1;PMS_P2;Temp;Humidity;BMP_temperature;BMP_pressure;BME280_temperature;BME280_humidity;BME280_pressure;Samples;Min_cycle;Max_cycle;Signal;HPM_P1;HPM_P2
2023/03/24 00:02:15;;;;;;;3.23;1.70;;;;;;;;;;5075153;28;20198;-72
2023/03/24 00:04:42;;;;;;;1.90;1.80;;;;;;;;;;5079626;28;20576;-72
2023/03/24 00:07:13;;;;;;;2.03;1.83;;;;;;;;;;5079822;28;20300;-73
2023/03/24 00:09:40;;;;;;;2.00;1.80;;;;;;;;;;5075205;28;20205;-72
2023/03/24 00:12:06;;;;;;;2.20;1.90;;;;;;;;;;5078868;28;20213;-73
2023/03/24 00:14:32;;;;;;;2.67;2.00;;;;;;;;;;5083667;28;20627;-73
2023/03/24 00:16:59;;;;;;;2.60;1.70;;;;;;;;;;5079340;28;20203;-73
2023/03/24 00:19:27;;;;;;;2.10;1.90;;;;;;;;;;5081562;28;20200;-73
2023/03/24 00:21:55;;;;;;;2.60;2.10;;;;;;;;;;5073018;28;20216;-73
2023/03/24 00:24:21;;;;;;;1.77;1.63;;;;;;;;;;5079096;28;20222;-73
2023/03/24 00:26:50;;;;;;;1.90;1.80;;;;;;;;;;5080009;28;20924;-72
2023/03/24 00:29:17;;;;;;;2.27;1.90;;;;;;;;;;5061464;28;20553;-73
2023/03/24 00:31:44;;;;;;;2.07;1.87;;;;;;;;;;5058010;28;20228;-73
2023/03/24 00:34:12;;;;;;;2.63;1.60;;;;;;;;;;5082101;28;20207;-74
2023/03/24 00:36:39;;;;;;;2.23;1.70;;;;;;;;;;5084903;28;20202;-73
2023/03/24 00:39:06;;;;;;;1.53;1.43;;;;;;;;;;5062935;28;20213;-73
2023/03/24 00:41:33;;;;;;;1.80;1.70;;;;;;;;;;5067008;28;20206;-73
2023/03/24 00:44:02;;;;;;;2.30;2.10;;;;;;;;;;5063113;28;20221;-74
2023/03/24 00:46:29;;;;;;;1.60;1.50;;;;;;;;;;5065714;28;20206;-73
2023/03/24 00:49:02;;;;;;;1.90;1.70;;;;;;;;;;5082035;28;20203;-73
2023/03/24 00:51:32;;;;;;;2.00;1.80;;;;;;;;;;5060068;28;20197;-73
2023/03/24 00:54:00;;;;;;;1.70;1.60;;;;;;;;;;5067028;28;20227;-73
2023/03/24 00:56:28;;;;;;;1.90;1.77;;;;;;;;;;5064543;28;20201;-73
2023/03/24 00:58:56;;;;;;;2.20;2.00;;;;;;;;;;5087090;28;20281;-73
2023/03/24 01:01:24;;;;;;;3.03;1.97;;;;;;;;;;5085947;28;20217;-73
2023/03/24 01:03:50;;;;;;;2.43;2.00;;;;;;;;;;5078663;28;20309;-73
2023/03/24 01:06:18;;;;;;;2.53;2.13;;;;;;;;;;5082030;28;20194;-72
2023/03/24 01:08:44;;;;;;;2.20;1.73;;;;;;;;;;5085802;28;20198;-72
2023/03/24 01:11:12;;;;;;;2.17;1.97;;;;;;;;;;5065840;28;20197;-72
2023/03/24 01:13:39;;;;;;;2.50;1.77;;;;;;;;;;5081114;28;20227;-73
2023/03/24 01:16:06;;;;;;;2.17;1.77;;;;;;;;;;5065991;28;20288;-73
2023/03/24 01:18:33;;;;;;;1.77;1.67;;;;;;;;;;5086262;28;20315;-73
2023/03/24 01:21:00;;;;;;;1.90;1.70;;;;;;;;;;5065631;28;20222;-73
2023/03/24 01:23:29;;;;;;;1.40;1.30;;;;;;;;;;5063201;28;20607;-73
2023/03/24 01:25:55;;;;;;;1.80;1.53;;;;;;;;;;5075857;28;21059;-73
2023/03/24 01:28:24;;;;;;;1.93;1.70;;;;;;;;;;5083700;28;20245;-73
2023/03/24 01:30:51;;;;;;;2.00;1.57;;;;;;;;;;5084260;28;22102;-73
2023/03/24 01:33:17;;;;;;;1.73;1.63;;;;;;;;;;5063337;28;20631;-73
2023/03/24 01:35:43;;;;;;;3.10;1.80;;;;;;;;;;5067502;28;20674;-72
2023/03/24 01:38:11;;;;;;;3.83;2.17;;;;;;;;;;5078690;28;20205;-72
2023/03/24 01:40:39;;;;;;;1.90;1.67;;;;;;;;;;5066002;28;20213;-72
2023/03/24 01:43:06;;;;;;;3.33;1.60;;;;;;;;;;5062285;28;20221;-72
2023/03/24 01:45:54;;;;;;;2.00;1.80;;;;;;;;;;5061685;28;20190;-72
2023/03/24 01:48:22;;;;;;;2.30;2.03;;;;;;;;;;5061912;28;20733;-72
2023/03/24 01:50:51;;;;;;;2.43;1.90;;;;;;;;;;5066515;28;20195;-73
2023/03/24 01:53:17;;;;;;;2.07;1.80;;;;;;;;;;5082344;28;20226;-72
2023/03/24 01:55:45;;;;;;;2.07;1.87;;;;;;;;;;5067424;28;20325;-72
2023/03/24 01:58:13;;;;;;;2.00;1.80;;;;;;;;;;5065406;28;20209;-72
2023/03/24 02:01:02;;;;;;;4.47;1.93;;;;;;;;;;5066125;28;20205;-72
2023/03/24 02:03:47;;;;;;;2.50;1.80;;;;;;;;;;5079679;28;20225;-72
2023/03/24 02:06:14;;;;;;;2.07;1.87;;;;;;;;;;5081148;28;20298;-72
2023/03/24 02:08:44;;;;;;;2.30;1.57;;;;;;;;;;5077772;28;20694;-72
2023/03/24 02:11:11;;;;;;;1.73;1.47;;;;;;;;;;5068555;28;20208;-72
2023/03/24 02:13:47;;;;;;;2.40;2.00;;;;;;;;;;5066859;28;20791;-72
2023/03/24 02:16:19;;;;;;;2.13;1.90;;;;;;;;;;5064270;28;20239;-72
2023/03/24 02:18:51;;;;;;;2.20;1.60;;;;;;;;;;5066056;28;20640;-72
2023/03/24 02:21:27;;;;;;;2.33;1.67;;;;;;;;;;5068633;28;20191;-72
2023/03/24 02:24:03;;;;;;;1.87;1.70;;;;;;;;;;5078545;28;20278;-72
2023/03/24 02:26:52;;;;;;;2.00;1.80;;;;;;;;;;5065702;28;20201;-72
2023/03/24 02:29:35;;;;;;;2.90;1.70;;;;;;;;;;5067328;28;20661;-72
2023/03/24 02:32:12;;;;;;;3.03;1.60;;;;;;;;;;5064864;28;20213;-72
2023/03/24 02:34:57;;;;;;;2.70;1.77;;;;;;;;;;5078104;28;20669;-72
2023/03/24 02:37:31;;;;;;;1.87;1.70;;;;;;;;;;5080580;28;20615;-72
2023/03/24 02:40:10;;;;;;;4.50;1.57;;;;;;;;;;5059107;28;20724;-72
2023/03/24 02:42:42;;;;;;;1.53;1.40;;;;;;;;;;5078971;28;20703;-73
2023/03/24 02:45:15;;;;;;;1.20;1.10;;;;;;;;;;5064098;28;20226;-72
2023/03/24 02:47:46;;;;;;;4.47;1.53;;;;;;;;;;5078310;28;20413;-72
2023/03/24 02:50:18;;;;;;;3.83;1.60;;;;;;;;;;5062991;28;20203;-73
2023/03/24 02:52:45;;;;;;;1.80;1.60;;;;;;;;;;5065755;28;20243;-72
2023/03/24 02:55:16;;;;;;;2.33;1.80;;;;;;;;;;5081154;28;20270;-72
2023/03/24 02:57:44;;;;;;;2.93;2.07;;;;;;;;;;5060875;28;20284;-72
2023/03/24 03:00:41;;;;;;;1.57;1.47;;;;;;;;;;5074056;28;20185;-72
2023/03/24 03:03:13;;;;;;;1.90;1.70;;;;;;;;;;5078872;28;20223;-72
2023/03/24 03:05:43;;;;;;;2.83;2.13;;;;;;;;;;5079629;28;20201;-72
2023/03/24 03:08:10;;;;;;;1.90;1.67;;;;;;;;;;5079500;28;20204;-72
2023/03/24 03:10:39;;;;;;;2.67;1.87;;;;;;;;;;5058661;28;20207;-72
2023/03/24 03:13:08;;;;;;;1.90;1.70;;;;;;;;;;5060850;28;20218;-72
2023/03/24 03:15:36;;;;;;;2.97;1.90;;;;;;;;;;5066593;28;20232;-72
2023/03/24 03:18:07;;;;;;;2.40;1.83;;;;;;;;;;5081362;28;20807;-73
2023/03/24 03:20:36;;;;;;;2.83;1.90;;;;;;;;;;5061620;28;20746;-73
2023/03/24 03:23:04;;;;;;;2.97;2.00;;;;;;;;;;5060595;28;20261;-72
2023/03/24 03:25:33;;;;;;;2.10;1.90;;;;;;;;;;5059838;28;20224;-72
2023/03/24 03:28:02;;;;;;;2.10;1.63;;;;;;;;;;5058761;28;20238;-72
2023/03/24 03:30:32;;;;;;;1.90;1.70;;;;;;;;;;5078463;28;20690;-72
2023/03/24 03:33:01;;;;;;;2.90;1.70;;;;;;;;;;5058700;28;20224;-72
2023/03/24 03:35:30;;;;;;;2.87;1.80;;;;;;;;;;5062882;28;20348;-72
2023/03/24 03:38:01;;;;;;;2.60;2.00;;;;;;;;;;5072743;28;20570;-72
2023/03/24 03:40:31;;;;;;;2.27;1.77;;;;;;;;;;5069921;28;20198;-72
2023/03/24 03:43:06;;;;;;;2.13;1.90;;;;;;;;;;5059471;28;20590;-72
2023/03/24 03:45:33;;;;;;;2.57;2.00;;;;;;;;;;5058327;28;20198;-72
2023/03/24 03:47:59;;;;;;;2.10;1.87;;;;;;;;;;5060476;28;20712;-72
2023/03/24 03:50:26;;;;;;;2.43;2.00;;;;;;;;;;5079187;28;20206;-72
2023/03/24 03:52:56;;;;;;;2.67;1.80;;;;;;;;;;5065461;28;20224;-72
2023/03/24 03:55:22;;;;;;;2.33;1.83;;;;;;;;;;5061261;28;20207;-72
2023/03/24 03:57:49;;;;;;;2.60;1.90;;;;;;;;;;5058135;28;20583;-72
2023/03/24 04:00:25;;;;;;;2.97;1.80;;;;;;;;;;5058805;28;20216;-72
2023/03/24 04:03:26;;;;;;;1.50;1.40;;;;;;;;;;5078506;28;20380;-72
2023/03/24 04:05:56;;;;;;;1.93;1.73;;;;;;;;;;5062823;28;20673;-72
2023/03/24 04:08:28;;;;;;;2.20;1.83;;;;;;;;;;5059800;28;20208;-72
2023/03/24 04:11:13;;;;;;;3.53;2.30;;;;;;;;;;5081782;28;20372;-72
2023/03/24 04:14:07;;;;;;;1.80;1.67;;;;;;;;;;5079339;28;20213;-72
2023/03/24 04:16:48;;;;;;;4.63;2.20;;;;;;;;;;5061207;28;20200;-72
2023/03/24 04:19:32;;;;;;;2.20;1.83;;;;;;;;;;5065435;28;20224;-72
2023/03/24 04:22:06;;;;;;;2.40;2.13;;;;;;;;;;5079158;28;20241;-72
2023/03/24 04:24:40;;;;;;;2.97;2.37;;;;;;;;;;5062135;28;20773;-72
2023/03/24 04:27:13;;;;;;;3.10;2.00;;;;;;;;;;5063757;28;20224;-72
2023/03/24 04:29:45;;;;;;;3.33;2.13;;;;;;;;;;5065701;28;20209;-72
2023/03/24 04:32:18;;;;;;;3.30;2.50;;;;;;;;;;5063728;28;20202;-72
2023/03/24 04:34:49;;;;;;;3.37;2.00;;;;;;;;;;5065699;28;20937;-72
2023/03/24 04:37:39;;;;;;;2.60;2.17;;;;;;;;;;5073541;28;20202;-72
2023/03/24 04:40:16;;;;;;;3.57;2.60;;;;;;;;;;5066691;28;20212;-73
2023/03/24 04:42:45;;;;;;;2.47;2.27;;;;;;;;;;5081525;28;20515;-73
2023/03/24 04:45:12;;;;;;;2.40;2.20;;;;;;;;;;5066593;28;20193;-73
2023/03/24 04:47:43;;;;;;;3.27;2.40;;;;;;;;;;5082955;28;20203;-73
2023/03/24 04:50:52;;;;;;;2.57;2.33;;;;;;;;;;5019440;28;20202;-73
2023/03/24 04:53:19;;;;;;;5.80;2.77;;;;;;;;;;5004070;28;20306;-73
2023/03/24 04:55:53;;;;;;;4.87;2.73;;;;;;;;;;5034372;28;20744;-73
2023/03/24 04:58:39;;;;;;;3.60;2.40;;;;;;;;;;5083852;28;20618;-73
2023/03/24 05:01:07;;;;;;;3.67;2.50;;;;;;;;;;5065815;28;20701;-73
2023/03/24 05:03:36;;;;;;;2.83;2.47;;;;;;;;;;5061441;28;20788;-73
2023/03/24 05:06:04;;;;;;;4.10;2.30;;;;;;;;;;5063871;28;20296;-73
2023/03/24 05:08:31;;;;;;;2.53;2.10;;;;;;;;;;5063510;28;20713;-73
2023/03/24 05:10:57;;;;;;;2.83;2.27;;;;;;;;;;5065960;28;20438;-73
2023/03/24 05:13:24;;;;;;;2.30;2.10;;;;;;;;;;5061635;28;20226;-72
2023/03/24 05:15:54;;;;;;;3.87;2.60;;;;;;;;;;5065527;28;20218;-73
2023/03/24 05:18:37;;;;;;;3.27;2.17;;;;;;;;;;5063341;28;20200;-73
2023/03/24 05:21:05;;;;;;;2.90;2.60;;;;;;;;;;5063113;28;20559;-73
2023/03/24 05:23:33;;;;;;;2.80;2.57;;;;;;;;;;5067235;28;20210;-73
2023/03/24 05:26:00;;;;;;;3.50;2.90;;;;;;;;;;5066043;28;20290;-73
2023/03/24 05:28:30;;;;;;;6.17;3.57;;;;;;;;;;5061471;28;20194;-73
2023/03/24 05:30:57;;;;;;;4.97;3.03;;;;;;;;;;5057598;28;20196;-73
2023/03/24 05:33:48;;;;;;;4.93;2.40;;;;;;;;;;5062925;28;20239;-73
2023/03/24 05:36:17;;;;;;;3.50;2.53;;;;;;;;;;5064301;28;20196;-73
2023/03/24 05:38:52;;;;;;;2.83;2.57;;;;;;;;;;5064677;28;20602;-73
2023/03/24 05:41:19;;;;;;;3.63;2.83;;;;;;;;;;5063593;28;20265;-73
2023/03/24 05:43:45;;;;;;;3.50;2.80;;;;;;;;;;5060158;28;20712;-73
2023/03/24 05:46:14;;;;;;;3.23;2.50;;;;;;;;;;5063841;28;20206;-73
2023/03/24 05:48:41;;;;;;;2.93;2.47;;;;;;;;;;5078015;28;20199;-73
2023/03/24 05:51:13;;;;;;;2.67;2.27;;;;;;;;;;5066548;28;20193;-73
2023/03/24 05:53:40;;;;;;;5.13;2.70;;;;;;;;;;5062296;28;20327;-73
2023/03/24 05:56:17;;;;;;;4.33;2.60;;;;;;;;;;5079039;28;20200;-73
2023/03/24 05:58:59;;;;;;;4.07;3.03;;;;;;;;;;5079673;28;20202;-73
2023/03/24 06:01:44;;;;;;;3.73;2.80;;;;;;;;;;5058600;28;20275;-73
2023/03/24 06:04:21;;;;;;;3.30;2.57;;;;;;;;;;5062150;28;20519;-73
2023/03/24 06:06:49;;;;;;;3.60;2.57;;;;;;;;;;5065597;28;20253;-73
2023/03/24 06:09:28;;;;;;;4.53;2.30;;;;;;;;;;5064720;28;20191;-73
2023/03/24 06:11:54;;;;;;;3.10;2.53;;;;;;;;;;5061186;28;20197;-73
2023/03/24 06:14:21;;;;;;;3.60;2.50;;;;;;;;;;5064656;28;20229;-73
2023/03/24 06:16:59;;;;;;;3.70;3.07;;;;;;;;;;5060663;28;20198;-73
2023/03/24 06:19:26;;;;;;;4.17;3.17;;;;;;;;;;5079588;28;20247;-73
2023/03/24 06:22:05;;;;;;;4.23;2.70;;;;;;;;;;5061291;28;20201;-73
2023/03/24 06:24:36;;;;;;;3.63;3.20;;;;;;;;;;5061037;28;20692;-73
2023/03/24 06:27:07;;;;;;;3.80;2.37;;;;;;;;;;5064940;28;20298;-73
2023/03/24 06:29:35;;;;;;;5.27;3.80;;;;;;;;;;5058844;28;20222;-73
2023/03/24 06:32:04;;;;;;;3.40;3.10;;;;;;;;;;5057487;28;20200;-73
2023/03/24 06:34:34;;;;;;;3.37;2.70;;;;;;;;;;5061064;28;20246;-73
2023/03/24 06:37:22;;;;;;;3.03;2.33;;;;;;;;;;5073928;28;20308;-73
2023/03/24 06:39:49;;;;;;;4.57;2.60;;;;;;;;;;5080539;28;20376;-73
2023/03/24 06:42:18;;;;;;;3.70;2.80;;;;;;;;;;5058927;28;20201;-73
2023/03/24 06:44:45;;;;;;;4.30;2.23;;;;;;;;;;5067013;28;20280;-73
2023/03/24 06:47:12;;;;;;;3.00;2.57;;;;;;;;;;5066557;28;20668;-73
2023/03/24 06:49:38;;;;;;;3.33;2.50;;;;;;;;;;5067870;28;20197;-73
2023/03/24 06:52:05;;;;;;;2.83;2.57;;;;;;;;;;5064134;28;20681;-73
2023/03/24 06:54:36;;;;;;;3.13;2.70;;;;;;;;;;5061101;28;20306;-73
2023/03/24 06:57:03;;;;;;;2.77;2.30;;;;;;;;;;5061853;28;20231;-73
2023/03/24 06:59:49;;;;;;;3.90;2.67;;;;;;;;;;5079179;28;20193;-73
2023/03/24 07:02:16;;;;;;;3.60;2.40;;;;;;;;;;5059466;28;20217;-73
2023/03/24 07:04:44;;;;;;;2.47;2.10;;;;;;;;;;5062407;28;20191;-74
2023/03/24 07:07:23;;;;;;;2.53;2.33;;;;;;;;;;5060263;28;20201;-73
2023/03/24 07:10:03;;;;;;;6.13;2.53;;;;;;;;;;5062124;28;20207;-73
2023/03/24 07:12:32;;;;;;;3.00;2.33;;;;;;;;;;5064800;28;20220;-73
2023/03/24 07:14:59;;;;;;;3.50;2.83;;;;;;;;;;5064686;28;20283;-73
2023/03/24 07:17:25;;;;;;;2.57;2.23;;;;;;;;;;5056795;28;20217;-73
2023/03/24 07:20:08;;;;;;;3.03;2.30;;;;;;;;;;5062186;28;20621;-73
2023/03/24 07:22:40;;;;;;;3.77;2.57;;;;;;;;;;5077274;28;20229;-73
2023/03/24 07:25:28;;;;;;;3.20;2.50;;;;;;;;;;5075520;28;20209;-73
2023/03/24 07:28:10;;;;;;;3.90;3.00;;;;;;;;;;5061018;28;20268;-73
2023/03/24 07:30:38;;;;;;;4.80;2.60;;;;;;;;;;5061952;28;20215;-73
2023/03/24 07:33:06;;;;;;;4.83;2.90;;;;;;;;;;5062985;28;21465;-73
2023/03/24 07:35:32;;;;;;;4.10;2.73;;;;;;;;;;5059302;28;20213;-73
2023/03/24 07:37:58;;;;;;;3.13;2.60;;;;;;;;;;5065757;28;20237;-73
2023/03/24 07:40:25;;;;;;;3.37;2.60;;;;;;;;;;5059468;28;20197;-73
2023/03/24 07:42:53;;;;;;;2.97;2.53;;;;;;;;;;5075010;28;20364;-73
2023/03/24 07:45:34;;;;;;;3.70;2.97;;;;;;;;;;5067684;28;20316;-73
2023/03/24 07:48:01;;;;;;;5.33;3.17;;;;;;;;;;5070097;28;20702;-72
2023/03/24 07:50:31;;;;;;;5.30;3.60;;;;;;;;;;5083323;28;20202;-73
2023/03/24 07:52:58;;;;;;;6.23;2.50;;;;;;;;;;5061783;28;20217;-72
2023/03/24 07:55:25;;;;;;;5.13;3.30;;;;;;;;;;5066627;28;20217;-72
2023/03/24 07:58:00;;;;;;;3.87;2.50;;;;;;;;;;5063208;28;20222;-72
2023/03/24 08:00:31;;;;;;;3.97;2.67;;;;;;;;;;5065748;28;20204;-72
2023/03/24 08:03:14;;;;;;;4.50;2.80;;;;;;;;;;5068742;28;20732;-72
2023/03/24 08:06:19;;;;;;;6.00;3.10;;;;;;;;;;5063099;28;20194;-72
2023/03/24 08:08:50;;;;;;;4.63;3.07;;;;;;;;;;5087181;28;20201;-72
2023/03/24 08:11:16;;;;;;;3.03;2.43;;;;;;;;;;5078122;28;20206;-72
2023/03/24 08:13:44;;;;;;;4.13;2.37;;;;;;;;;;5081841;28;20221;-72
2023/03/24 08:16:10;;;;;;;6.37;2.67;;;;;;;;;;5082749;28;20270;-73
2023/03/24 08:18:37;;;;;;;6.30;3.70;;;;;;;;;;5085285;28;20198;-73
2023/03/24 08:21:03;;;;;;;4.37;3.23;;;;;;;;;;5087276;28;20205;-74
2023/03/24 08:23:29;;;;;;;4.57;3.30;;;;;;;;;;5080635;28;20260;-73
2023/03/24 08:25:56;;;;;;;4.07;2.80;;;;;;;;;;5083692;28;20632;-73
2023/03/24 08:28:22;;;;;;;3.17;2.70;;;;;;;;;;5073256;28;20354;-73
2023/03/24 08:30:50;;;;;;;4.93;2.10;;;;;;;;;;5064988;28;20197;-73
2023/03/24 08:33:16;;;;;;;3.07;2.20;;;;;;;;;;5080993;28;20225;-73
2023/03/24 08:35:44;;;;;;;2.77;2.03;;;;;;;;;;5081857;28;20218;-73
2023/03/24 08:38:11;;;;;;;6.17;2.20;;;;;;;;;;5079587;28;20423;-73
2023/03/24 08:40:38;;;;;;;3.27;2.70;;;;;;;;;;5080823;28;20201;-73
2023/03/24 08:43:07;;;;;;;3.47;2.50;;;;;;;;;;5079409;28;20757;-73
2023/03/24 08:45:34;;;;;;;2.43;2.10;;;;;;;;;;5084584;28;20197;-72
2023/03/24 08:48:02;;;;;;;4.33;2.53;;;;;;;;;;5083503;28;20278;-73
2023/03/24 08:50:30;;;;;;;3.70;2.67;;;;;;;;;;5081951;28;20224;-73
2023/03/24 08:52:56;;;;;;;3.93;2.43;;;;;;;;;;5083362;28;20225;-73
2023/03/24 08:55:23;;;;;;;2.43;2.17;;;;;;;;;;5081302;28;20217;-73
2023/03/24 08:57:49;;;;;;;3.83;2.80;;;;;;;;;;5081623;28;20194;-73
2023/03/24 09:00:17;;;;;;;3.90;2.40;;;;;;;;;;5082513;28;20663;-73
2023/03/24 09:02:44;;;;;;;2.47;1.97;;;;;;;;;;5082053;28;20777;-73
2023/03/24 09:05:12;;;;;;;2.73;1.80;;;;;;;;;;5065009;28;20584;-73
2023/03/24 09:07:38;;;;;;;2.53;1.70;;;;;;;;;;5081901;28;20241;-73
2023/03/24 09:10:05;;;;;;;1.57;1.37;;;;;;;;;;5077019;28;20622;-73
2023/03/24 09:12:31;;;;;;;2.10;1.50;;;;;;;;;;5081824;28;20405;-73
2023/03/24 09:14:57;;;;;;;1.87;1.60;;;;;;;;;;5082896;28;20210;-73
2023/03/24 09:17:24;;;;;;;2.10;1.70;;;;;;;;;;5077638;28;20209;-73
2023/03/24 09:19:50;;;;;;;1.80;1.70;;;;;;;;;;5082045;28;20194;-73
2023/03/24 09:22:17;;;;;;;2.37;1.60;;;;;;;;;;5080491;28;20198;-71
2023/03/24 09:24:44;;;;;;;2.50;2.20;;;;;;;;;;5078759;28;20192;-73
2023/03/24 09:27:10;;;;;;;3.00;2.03;;;;;;;;;;5078132;28;20201;-73
2023/03/24 09:29:37;;;;;;;1.67;1.50;;;;;;;;;;5076749;28;20277;-73
2023/03/24 09:32:03;;;;;;;2.17;1.73;;;;;;;;;;5082507;28;20218;-73
2023/03/24 09:34:31;;;;;;;2.90;1.80;;;;;;;;;;5059997;28;20210;-71
2023/03/24 09:36:57;;;;;;;2.87;1.83;;;;;;;;;;5079652;28;20197;-72
2023/03/24 09:39:25;;;;;;;2.47;1.70;;;;;;;;;;5082689;28;20195;-72
2023/03/24 09:41:52;;;;;;;1.90;1.70;;;;;;;;;;5063061;28;20205;-72
2023/03/24 09:44:23;;;;;;;2.03;1.83;;;;;;;;;;5078087;28;20288;-72
2023/03/24 09:46:51;;;;;;;3.30;1.60;;;;;;;;;;5081910;28;20198;-72
2023/03/24 09:49:22;;;;;;;1.57;1.47;;;;;;;;;;5077008;28;20199;-72
2023/03/24 09:51:49;;;;;;;3.00;1.73;;;;;;;;;;5080667;28;20239;-73
2023/03/24 09:54:19;;;;;;;1.67;1.30;;;;;;;;;;5076927;28;20280;-72
2023/03/24 09:56:47;;;;;;;3.97;1.80;;;;;;;;;;5080957;28;20737;-72
2023/03/24 09:59:16;;;;;;;1.70;1.57;;;;;;;;;;5081818;28;20215;-72
2023/03/24 10:01:42;;;;;;;1.63;1.40;;;;;;;;;;5079498;28;20201;-72
2023/03/24 10:04:14;;;;;;;3.23;1.60;;;;;;;;;;5079177;28;20221;-72
2023/03/24 10:06:41;;;;;;;2.40;1.23;;;;;;;;;;5083674;28;20202;-73
2023/03/24 10:09:15;;;;;;;2.07;1.50;;;;;;;;;;5064404;28;20201;-72
2023/03/24 10:11:46;;;;;;;2.17;1.30;;;;;;;;;;5080565;28;20243;-72
2023/03/24 10:14:20;;;;;;;2.27;1.20;;;;;;;;;;5076540;28;20237;-72
2023/03/24 10:16:50;;;;;;;1.53;1.30;;;;;;;;;;5064680;28;20204;-72
2023/03/24 10:19:20;;;;;;;1.20;1.10;;;;;;;;;;5078662;28;20464;-72
2023/03/24 10:21:52;;;;;;;1.30;1.20;;;;;;;;;;5080674;28;20190;-72
2023/03/24 10:24:22;;;;;;;1.77;1.10;;;;;;;;;;5080747;28;20222;-71
2023/03/24 10:26:52;;;;;;;1.33;0.97;;;;;;;;;;5081072;28;20243;-72
2023/03/24 10:29:24;;;;;;;1.53;1.10;;;;;;;;;;5079835;28;20216;-72
2023/03/24 10:31:52;;;;;;;0.93;0.80;;;;;;;;;;5078599;28;20300;-72
2023/03/24 10:34:19;;;;;;;0.90;0.80;;;;;;;;;;5079293;28;20217;-72
2023/03/24 10:36:45;;;;;;;0.67;0.67;;;;;;;;;;5063187;28;20691;-72
2023/03/24 10:39:14;;;;;;;1.53;0.97;;;;;;;;;;5060582;28;20228;-73
2023/03/24 10:41:41;;;;;;;1.70;1.07;;;;;;;;;;5074597;28;20198;-72
2023/03/24 10:44:07;;;;;;;1.23;1.00;;;;;;;;;;5080938;28;20222;-72
2023/03/24 10:46:37;;;;;;;0.80;0.80;;;;;;;;;;5063363;28;20194;-72
2023/03/24 10:49:08;;;;;;;1.30;1.10;;;;;;;;;;5078677;28;21120;-72
2023/03/24 10:51:35;;;;;;;1.07;0.90;;;;;;;;;;5076629;28;20698;-72
2023/03/24 10:54:09;;;;;;;1.40;1.13;;;;;;;;;;5081414;28;20233;-72
2023/03/24 10:56:40;;;;;;;1.10;0.90;;;;;;;;;;5080060;28;20209;-73
2023/03/24 10:59:14;;;;;;;1.10;0.90;;;;;;;;;;5079122;28;20198;-72
2023/03/24 11:01:42;;;;;;;0.90;0.90;;;;;;;;;;5059426;28;20570;-72
2023/03/24 11:04:11;;;;;;;1.13;1.03;;;;;;;;;;5063116;28;20312;-72
2023/03/24 11:06:37;;;;;;;2.20;1.10;;;;;;;;;;5080579;28;20192;-72
2023/03/24 11:09:07;;;;;;;1.83;1.10;;;;;;;;;;5051330;22;20311;-69
2023/03/24 11:11:34;;;;;;;1.63;1.20;;;;;;;;;;5005298;28;20226;-71
2023/03/24 11:14:01;;;;;;;1.40;1.10;;;;;;;;;;4994313;28;20274;-71
2023/03/24 11:16:29;;;;;;;1.30;0.90;;;;;;;;;;5004122;28;20684;-71
2023/03/24 11:18:57;;;;;;;1.43;1.10;;;;;;;;;;4997691;28;20215;-70
2023/03/24 11:21:24;;;;;;;1.50;1.20;;;;;;;;;;5007935;28;20203;-71
2023/03/24 11:23:50;;;;;;;2.90;1.23;;;;;;;;;;4996280;23;20248;-79
2023/03/24 11:26:18;;;;;;;0.90;0.80;;;;;;;;;;4971876;28;20194;-78
2023/03/24 11:28:45;;;;;;;1.20;0.90;;;;;;;;;;4976360;28;20686;-79
2023/03/24 11:31:17;;;;;;;1.37;1.20;;;;;;;;;;4969360;28;20216;-78
2023/03/24 11:33:45;;;;;;;0.80;0.80;;;;;;;;;;4961641;28;20237;-78
2023/03/24 11:36:31;;;;;;;1.10;0.77;;;;;;;;;;4992158;23;20305;-74
2023/03/24 11:39:02;;;;;;;1.07;0.97;;;;;;;;;;5062229;28;20204;-73
2023/03/24 11:41:29;;;;;;;0.70;0.70;;;;;;;;;;5069300;28;20286;-74
2023/03/24 11:44:07;;;;;;;1.77;0.97;;;;;;;;;;5065755;28;20273;-74
2023/03/24 11:46:35;;;;;;;1.10;0.80;;;;;;;;;;5067130;28;20205;-74
2023/03/24 11:49:01;;;;;;;1.10;1.00;;;;;;;;;;5076803;28;20210;-74
2023/03/24 11:51:30;;;;;;;1.13;0.90;;;;;;;;;;5069195;28;20198;-74
2023/03/24 11:53:56;;;;;;;0.97;0.90;;;;;;;;;;5076401;28;20580;-74
2023/03/24 11:56:27;;;;;;;1.20;1.00;;;;;;;;;;5074993;28;20297;-74
2023/03/24 11:58:57;;;;;;;1.70;1.10;;;;;;;;;;5075520;28;20208;-74
2023/03/24 12:01:26;;;;;;;1.60;1.10;;;;;;;;;;5059457;28;20281;-74
2023/03/24 12:03:58;;;;;;;1.20;1.00;;;;;;;;;;5051661;28;20218;-74
2023/03/24 12:06:33;;;;;;;1.10;1.00;;;;;;;;;;5075092;28;20207;-74
2023/03/24 12:09:08;;;;;;;2.03;1.10;;;;;;;;;;5077058;28;20197;-74
2023/03/24 12:11:45;;;;;;;1.57;1.00;;;;;;;;;;5043784;28;20575;-74
2023/03/24 12:14:13;;;;;;;1.97;1.00;;;;;;;;;;5063647;28;20194;-74
2023/03/24 12:16:46;;;;;;;2.37;1.00;;;;;;;;;;5064668;28;20230;-74
2023/03/24 12:19:33;;;;;;;0.90;0.90;;;;;;;;;;5065178;28;20787;-74
2023/03/24 12:22:06;;;;;;;0.80;0.80;;;;;;;;;;5068296;28;20194;-74
2023/03/24 12:24:48;;;;;;;1.43;1.07;;;;;;;;;;5075324;28;20289;-74
2023/03/24 12:27:23;;;;;;;1.70;1.07;;;;;;;;;;5081130;22;20228;-74
2023/03/24 12:29:58;;;;;;;0.90;0.90;;;;;;;;;;5056815;28;20197;-73
2023/03/24 12:32:30;;;;;;;1.97;1.10;;;;;;;;;;5074783;28;20190;-75
2023/03/24 12:35:14;;;;;;;1.53;1.20;;;;;;;;;;5078609;28;20197;-74
2023/03/24 12:37:44;;;;;;;1.20;1.10;;;;;;;;;;5066999;28;20242;-73
2023/03/24 12:40:35;;;;;;;2.03;1.23;;;;;;;;;;5063525;22;20182;-73
2023/03/24 12:43:06;;;;;;;1.03;0.90;;;;;;;;;;5013355;28;20536;-72
2023/03/24 12:45:38;;;;;;;3.77;1.83;;;;;;;;;;4983009;28;20280;-72
2023/03/24 12:48:10;;;;;;;2.37;1.40;;;;;;;;;;4983455;28;20216;-72
2023/03/24 12:50:42;;;;;;;2.93;1.57;;;;;;;;;;4978943;28;20221;-72
2023/03/24 12:53:21;;;;;;;3.20;1.30;;;;;;;;;;4968151;28;20559;-72
2023/03/24 12:55:49;;;;;;;4.77;2.03;;;;;;;;;;4979465;28;20258;-72
2023/03/24 12:58:20;;;;;;;2.47;1.80;;;;;;;;;;4982070;28;20205;-72
2023/03/24 13:00:54;;;;;;;2.10;0.70;;;;;;;;;;4981367;28;20685;-72
2023/03/24 13:03:23;;;;;;;0.70;0.57;;;;;;;;;;4979872;28;20394;-72
2023/03/24 13:05:50;;;;;;;1.17;0.70;;;;;;;;;;4982436;28;20296;-73
2023/03/24 13:08:21;;;;;;;1.33;1.17;;;;;;;;;;4985415;28;20245;-72
2023/03/24 13:10:48;;;;;;;1.43;1.10;;;;;;;;;;4996274;28;20707;-73
2023/03/24 13:13:17;;;;;;;0.90;0.70;;;;;;;;;;4984179;28;20198;-72
2023/03/24 13:15:46;;;;;;;2.30;1.00;;;;;;;;;;4980047;28;20217;-71
2023/03/24 13:18:18;;;;;;;3.40;2.27;;;;;;;;;;4983315;28;20216;-72
2023/03/24 13:20:46;;;;;;;5.70;3.33;;;;;;;;;;4987305;28;20677;-72
2023/03/24 13:23:22;;;;;;;3.93;2.40;;;;;;;;;;4965178;28;20220;-72
2023/03/24 13:25:51;;;;;;;1.50;1.30;;;;;;;;;;4986500;28;20189;-73
2023/03/24 13:28:22;;;;;;;1.80;1.00;;;;;;;;;;4982856;28;20422;-72
2023/03/24 13:30:50;;;;;;;2.03;0.90;;;;;;;;;;4986347;28;20502;-73
2023/03/24 13:33:18;;;;;;;2.03;0.90;;;;;;;;;;4981999;28;20490;-72
2023/03/24 13:35:51;;;;;;;1.67;1.00;;;;;;;;;;4984645;28;20690;-72
2023/03/24 13:38:20;;;;;;;1.50;1.13;;;;;;;;;;4970090;28;20205;-74
2023/03/24 13:40:49;;;;;;;1.03;1.00;;;;;;;;;;4983862;28;20272;-72
2023/03/24 13:43:18;;;;;;;0.80;0.80;;;;;;;;;;4978455;28;20285;-72
2023/03/24 13:45:46;;;;;;;1.93;0.97;;;;;;;;;;4989130;28;20206;-74
2023/03/24 13:48:29;;;;;;;1.43;0.93;;;;;;;;;;4979174;28;20504;-73
2023/03/24 13:50:57;;;;;;;1.10;1.00;;;;;;;;;;4989286;28;20236;-72
2023/03/24 13:53:29;;;;;;;0.90;0.90;;;;;;;;;;4984014;28;20585;-73
2023/03/24 13:55:55;;;;;;;2.43;1.00;;;;;;;;;;4981594;28;20268;-74
2023/03/24 13:58:23;;;;;;;1.87;1.30;;;;;;;;;;4979686;28;20759;-72
2023/03/24 14:01:06;;;;;;;2.50;1.63;;;;;;;;;;4978937;28;20224;-74
2023/03/24 14:03:35;;;;;;;4.43;1.43;;;;;;;;;;4980331;28;20212;-72
2023/03/24 14:06:03;;;;;;;1.33;1.17;;;;;;;;;;4978794;28;20204;-72
2023/03/24 14:08:42;;;;;;;1.30;1.10;;;;;;;;;;4973123;28;20210;-73
2023/03/24 14:11:30;;;;;;;1.80;0.97;;;;;;;;;;4983128;28;20228;-74
2023/03/24 14:14:04;;;;;;;2.27;1.30;;;;;;;;;;4975862;28;20202;-72
2023/03/24 14:16:44;;;;;;;1.10;1.00;;;;;;;;;;4989924;28;20214;-74
2023/03/24 14:19:25;;;;;;;0.97;0.80;;;;;;;;;;4976170;28;20568;-72
2023/03/24 14:21:53;;;;;;;0.97;0.70;;;;;;;;;;4976497;28;20319;-73
2023/03/24 14:24:23;;;;;;;1.13;1.03;;;;;;;;;;4975392;28;20566;-74
2023/03/24 14:26:50;;;;;;;1.87;1.10;;;;;;;;;;4977533;28;20213;-75
2023/03/24 14:29:31;;;;;;;2.33;1.40;;;;;;;;;;4977829;28;20301;-74
2023/03/24 14:32:01;;;;;;;1.50;1.00;;;;;;;;;;4976173;28;20222;-73
2023/03/24 14:34:29;;;;;;;2.17;1.10;;;;;;;;;;4963339;28;20212;-74
2023/03/24 14:36:58;;;;;;;2.87;1.10;;;;;;;;;;4978490;28;20219;-74
2023/03/24 14:39:27;;;;;;;1.70;1.20;;;;;;;;;;4976418;28;20566;-74
2023/03/24 14:41:54;;;;;;;1.10;1.00;;;;;;;;;;4979117;28;20232;-74
2023/03/24 14:44:39;;;;;;;2.43;1.20;;;;;;;;;;4981867;28;20609;-74
2023/03/24 14:47:06;;;;;;;1.63;1.30;;;;;;;;;;4975245;28;20216;-73
2023/03/24 14:49:34;;;;;;;2.43;1.43;;;;;;;;;;4977158;28;20208;-74
2023/03/24 14:52:03;;;;;;;1.80;1.10;;;;;;;;;;4959688;28;20715;-74
2023/03/24 14:54:32;;;;;;;4.00;1.27;;;;;;;;;;4976862;28;20209;-72
2023/03/24 14:56:59;;;;;;;1.30;1.20;;;;;;;;;;4979374;28;20217;-73
2023/03/24 14:59:29;;;;;;;2.27;1.50;;;;;;;;;;4981863;28;20209;-71
2023/03/24 15:02:00;;;;;;;2.07;1.50;;;;;;;;;;4977752;28;20842;-74
2023/03/24 15:04:29;;;;;;;1.30;1.20;;;;;;;;;;4984964;28;20642;-74
2023/03/24 15:06:57;;;;;;;2.27;1.47;;;;;;;;;;4978717;28;20606;-74